Time;durP1;ratioP1;P1;durP2;ratioP2;P2;SDS_P1;SDS_P2;PMS_P1;PMS_P2;Temp;Humidity;BMP_temperature;BMP_pressure;BME280_temperature;BME280_humidity;BME280_pressure;Samples;Min_cycle;Max_cycle;Signal;HPM_P1;HPM_P2
2022/08/26 06:56:08;;;;;;;8.53;5.90;;;;;;;21.47;61.66;96332.75;2064342;27;1257499;-65
2022/08/26 06:57:13;;;;;;;11.20;5.18;;;;;;;21.61;60.97;96317.34;2094575;28;20221;-65
2022/08/26 06:58:17;;;;;;;13.38;5.93;;;;;;;21.94;60.17;96336.38;2088177;28;20201;-65
2022/08/26 07:09:29;;;;;;;17.00;6.25;;;;;;;22.81;57.91;96343.00;2100274;27;20333;-63
2022/08/26 07:10:35;;;;;;;7.88;4.70;;;;;;;23.03;57.47;96334.69;2092325;28;20540;-63
2022/08/26 07:11:37;;;;;;;6.63;4.95;;;;;;;23.22;56.93;96337.19;2089822;28;20398;-63
2022/08/26 07:23:03;;;;;;;9.30;4.04;;;;;;;24.24;54.39;96345.47;4228170;27;20539;-62
2022/08/26 07:24:04;;;;;;;8.97;3.70;;;;;;;24.37;53.88;96338.84;2042853;28;1281271;-63
2022/08/26 07:33:08;;;;;;;10.30;4.20;;;;;;;25.66;50.77;96325.88;2086531;28;21085;-62
2022/08/26 07:34:12;;;;;;;8.18;3.70;;;;;;;25.84;50.64;96347.06;2083757;28;20200;-62
2022/08/26 07:35:14;;;;;;;8.65;3.70;;;;;;;25.92;50.78;96345.19;2079675;28;20201;-63
2022/08/26 07:36:17;;;;;;;8.57;3.60;;;;;;;25.94;50.62;96350.38;2081320;28;20398;-63
2022/08/26 07:44:58;;;;;;;9.93;4.30;;;;;;;26.21;50.33;96346.44;2063053;27;1282262;-62
2022/08/26 07:45:59;;;;;;;7.35;3.60;;;;;;;26.09;50.02;96334.47;2106464;28;20199;-63
2022/08/26 07:47:01;;;;;;;8.75;4.00;;;;;;;25.72;50.62;96346.59;2097707;28;20227;-63
2022/08/26 07:48:03;;;;;;;15.98;4.10;;;;;;;26.06;49.81;96354.38;2089203;28;20196;-63
2022/08/26 07:49:05;;;;;;;5.47;3.65;;;;;;;26.03;50.02;96352.00;2088388;28;20196;-63
2022/08/26 07:50:07;;;;;;;7.88;3.58;;;;;;;26.39;49.22;96346.19;2089428;28;20206;-63
2022/08/26 07:58:21;;;;;;;9.50;4.03;;;;;;;27.77;46.17;96349.03;2065582;27;1244663;-63
2022/08/26 07:59:24;;;;;;;6.22;3.70;;;;;;;27.77;46.13;96346.34;2103889;28;20634;-63
2022/08/26 08:00:27;;;;;;;8.30;3.63;;;;;;;27.93;45.92;96333.78;2103288;28;20232;-63
2022/08/26 08:01:30;;;;;;;6.30;3.08;;;;;;;28.16;45.29;96339.91;2101876;28;20199;-62
2022/08/26 08:02:34;;;;;;;8.30;4.03;;;;;;;28.26;44.30;96346.81;2095544;28;20206;-63
2022/08/26 08:03:35;;;;;;;9.43;3.55;;;;;;;28.29;44.05;96349.97;2095221;28;20199;-63
2022/08/26 08:04:37;;;;;;;9.43;3.35;;;;;;;27.74;45.11;96346.69;2095328;28;20218;-63
2022/08/26 08:05:41;;;;;;;7.80;3.90;;;;;;;26.58;47.49;96341.41;2095248;28;20290;-63
2022/08/26 08:06:46;;;;;;;5.53;3.47;;;;;;;26.87;47.15;96327.34;2094366;28;20238;-63
2022/08/26 08:07:48;;;;;;;11.43;3.95;;;;;;;27.74;45.55;96341.34;2095303;28;20195;-63
2022/08/26 08:08:55;;;;;;;5.82;3.92;;;;;;;28.08;44.87;96339.97;2095391;28;20248;-63
2022/08/26 08:09:56;;;;;;;6.57;3.50;;;;;;;27.72;45.51;96340.72;2095145;28;20614;-63
2022/08/26 08:19:00;;;;;;;6.22;3.95;;;;;;;28.81;42.82;96347.25;2092880;27;20558;-63
2022/08/26 08:20:06;;;;;;;18.15;4.35;;;;;;;28.30;44.08;96335.53;2094963;28;20195;-63
2022/08/26 08:21:07;;;;;;;14.30;3.75;;;;;;;27.90;44.95;96347.56;2093883;28;20195;-63
2022/08/26 08:22:24;;;;;;;6.97;3.40;;;;;;;27.31;46.15;96346.44;2062310;28;20252;-63
2022/08/26 08:23:28;;;;;;;9.60;4.18;;;;;;;28.00;45.33;96342.75;2062695;28;20194;-63
2022/08/26 08:24:32;;;;;;;13.57;3.88;;;;;;;28.85;44.26;96343.19;2062523;28;20198;-65
2022/08/26 08:25:33;;;;;;;14.52;5.40;;;;;;;29.39;43.12;96346.38;2062480;28;20202;-65
2022/08/26 08:26:35;;;;;;;14.45;4.03;;;;;;;29.63;42.24;96356.69;2062231;28;20198;-65
2022/08/26 08:27:39;;;;;;;13.60;4.15;;;;;;;29.52;42.22;96337.56;2062367;28;20202;-65
2022/08/26 08:28:40;;;;;;;17.58;4.72;;;;;;;29.65;42.48;96353.81;2062636;28;20678;-65
2022/08/26 08:29:42;;;;;;;6.20;3.95;;;;;;;29.40;42.52;96319.28;2062259;28;20213;-65
2022/08/26 08:30:43;;;;;;;10.88;4.88;;;;;;;30.11;42.01;96349.78;2062674;28;20806;-65
2022/08/26 08:31:47;;;;;;;8.98;4.88;;;;;;;30.05;41.34;96354.09;2061551;28;20256;-65
2022/08/26 08:32:59;;;;;;;12.55;3.70;;;;;;;29.77;41.95;96349.53;2061905;28;20358;-65
2022/08/26 08:42:47;;;;;;;15.13;5.20;;;;;;;31.01;40.37;96348.84;2083040;27;20576;-65
2022/08/26 08:43:50;;;;;;;11.10;4.55;;;;;;;30.79;40.18;96349.00;2083795;28;20213;-65
2022/08/26 08:44:56;;;;;;;17.27;4.70;;;;;;;30.81;40.15;96348.84;2082045;28;20197;-63
2022/08/26 08:46:02;;;;;;;6.05;3.60;;;;;;;31.26;39.77;96347.25;2081141;28;20283;-62
2022/08/26 08:47:17;;;;;;;12.77;4.37;;;;;;;31.48;39.08;96341.66;2082387;28;20762;-62
2022/08/26 08:48:24;;;;;;;10.97;4.90;;;;;;;31.70;38.97;96361.16;2080869;28;20420;-62
2022/08/26 08:49:29;;;;;;;10.17;4.67;;;;;;;31.96;39.04;96343.28;2082538;28;20944;-62
2022/08/26 08:50:34;;;;;;;9.37;4.43;;;;;;;32.08;38.57;96346.16;2083510;28;20934;-63
2022/08/26 08:58:27;;;;;;;11.43;4.23;;;;;;;30.25;40.89;96351.50;2080561;28;20820;-62
2022/08/26 08:59:33;;;;;;;9.43;4.40;;;;;;;30.13;41.48;96347.69;2073655;28;20419;-62
2022/08/26 09:00:49;;;;;;;11.47;4.60;;;;;;;30.61;40.65;96339.66;2075688;28;20439;-62
2022/08/26 09:02:04;;;;;;;13.80;4.90;;;;;;;30.89;40.05;96340.53;2073862;28;20557;-61
2022/08/26 09:03:46;;;;;;;16.47;4.40;;;;;;;30.95;39.87;96342.41;2076165;28;20438;-64
2022/08/26 09:05:03;;;;;;;14.80;4.87;;;;;;;31.46;40.22;96332.94;2072640;28;20570;-66
2022/08/26 09:06:15;;;;;;;9.77;4.70;;;;;;;31.83;39.27;96337.91;2080844;28;20460;-65
2022/08/26 09:07:24;;;;;;;13.33;5.20;;;;;;;31.73;39.90;96331.06;2079078;28;20458;-63
2022/08/26 09:08:31;;;;;;;12.60;4.90;;;;;;;32.30;38.73;96335.09;2070595;28;20661;-65
2022/08/26 09:09:47;;;;;;;8.17;4.20;;;;;;;32.54;38.96;96341.63;2074269;28;20476;-68
2022/08/26 09:22:07;;;;;;;10.90;4.30;;;;;;;32.55;37.51;96333.31;2079075;28;20544;-69
2022/08/26 09:23:10;;;;;;;12.27;5.40;;;;;;;32.83;37.85;96334.03;2081262;28;20426;-68
2022/08/26 09:24:11;;;;;;;10.90;4.63;;;;;;;32.94;37.36;96336.03;2080178;28;20780;-69
2022/08/26 09:25:18;;;;;;;18.57;5.50;;;;;;;32.70;37.56;96333.03;2081500;28;20908;-69
2022/08/26 09:26:24;;;;;;;10.87;5.30;;;;;;;32.57;38.08;96338.50;2081074;28;20778;-67
2022/08/26 09:27:43;;;;;;;13.57;5.60;;;;;;;32.30;38.44;96332.38;2081282;28;20837;-67
2022/08/26 09:28:54;;;;;;;8.67;4.50;;;;;;;32.02;38.06;96320.84;2081314;28;20914;-67
2022/08/26 09:29:58;;;;;;;9.93;4.50;;;;;;;31.97;38.14;96334.13;2081553;28;21078;-67
2022/08/26 09:31:09;;;;;;;10.57;4.90;;;;;;;31.45;38.70;96333.16;2081862;28;20912;-67
2022/08/26 09:32:23;;;;;;;8.57;5.20;;;;;;;30.27;40.88;96332.44;2082431;28;20458;-66
2022/08/26 09:33:29;;;;;;;10.87;5.53;;;;;;;31.13;39.34;96316.75;2080858;28;20437;-67
2022/08/26 09:34:31;;;;;;;8.07;5.10;;;;;;;30.58;40.16;96321.19;2080923;28;20440;-66
2022/08/26 09:35:36;;;;;;;11.60;5.10;;;;;;;30.99;40.46;96324.78;2081865;28;20458;-68
2022/08/26 09:36:50;;;;;;;16.33;4.90;;;;;;;31.95;38.92;96327.28;2080300;28;21173;-67
2022/08/26 09:37:51;;;;;;;28.07;6.10;;;;;;;31.46;38.81;96324.84;2080342;28;20463;-67
2022/08/26 09:38:53;;;;;;;13.80;5.17;;;;;;;31.31;39.33;96319.66;2080972;28;20482;-67
2022/08/26 09:40:11;;;;;;;13.30;4.80;;;;;;;32.02;38.83;96320.84;2081655;28;20422;-67
2022/08/26 09:41:25;;;;;;;11.07;5.80;;;;;;;32.79;37.28;96327.41;2079966;28;21362;-67
2022/08/26 09:42:26;;;;;;;11.70;4.40;;;;;;;33.18;36.61;96322.78;2080858;28;20470;-65
2022/08/26 09:43:28;;;;;;;10.10;5.20;;;;;;;33.19;36.65;96324.41;2073567;28;21015;-62
2022/08/26 09:44:31;;;;;;;9.87;5.03;;;;;;;33.37;35.89;96321.81;2069903;28;20438;-63
2022/08/26 09:45:33;;;;;;;10.90;5.70;;;;;;;32.96;35.87;96315.00;2080399;28;20423;-63
2022/08/26 09:53:10;;;;;;;10.47;5.90;;;;;;;32.45;37.85;96303.22;2082402;28;20427;-63
2022/08/26 09:54:26;;;;;;;9.20;4.93;;;;;;;33.16;36.26;96301.34;2078886;28;20437;-61
2022/08/26 09:55:31;;;;;;;12.33;5.40;;;;;;;33.52;36.03;96302.53;2075918;28;20531;-62
2022/08/26 09:56:36;;;;;;;15.87;5.00;;;;;;;33.89;35.25;96298.22;2075958;28;20419;-62
2022/08/26 09:57:47;;;;;;;7.83;4.80;;;;;;;34.27;34.96;96302.56;2076919;28;20434;-64
2022/08/26 09:58:50;;;;;;;17.10;4.93;;;;;;;33.67;34.58;96299.47;2076501;28;20430;-63
2022/08/26 09:59:52;;;;;;;13.70;5.00;;;;;;;32.40;35.81;96286.84;2076783;28;20438;-63
2022/08/26 10:00:57;;;;;;;9.43;5.43;;;;;;;32.94;35.91;96298.19;2076207;28;20853;-62
2022/08/26 10:02:33;;;;;;;16.13;5.47;;;;;;;31.91;37.45;96292.63;2077161;28;20461;-63
2022/08/26 10:03:37;;;;;;;11.07;4.80;;;;;;;33.21;36.08;96293.38;2076397;28;20430;-62
2022/08/26 10:04:39;;;;;;;14.00;4.77;;;;;;;33.96;35.36;96294.38;2073742;28;20438;-62
2022/08/26 10:05:57;;;;;;;12.33;5.10;;;;;;;34.53;34.64;96290.59;2075160;28;20458;-62
2022/08/26 10:07:06;;;;;;;9.93;4.90;;;;;;;32.39;36.69;96283.31;2078373;28;20457;-63
2022/08/26 10:08:22;;;;;;;13.00;5.67;;;;;;;33.58;35.86;96278.34;2078982;28;20431;-63
2022/08/26 10:09:25;;;;;;;18.03;6.80;;;;;;;34.53;34.44;96270.81;2073811;28;20430;-63
2022/08/26 10:10:34;;;;;;;11.63;4.83;;;;;;;35.06;33.67;96280.88;2076062;28;20431;-63
2022/08/26 10:11:44;;;;;;;11.77;5.90;;;;;;;35.34;33.32;96273.94;2075441;28;20920;-63
2022/08/26 10:13:26;;;;;;;8.17;5.33;;;;;;;35.54;32.83;96279.06;2075624;28;20427;-63
2022/08/26 10:14:32;;;;;;;12.73;4.97;;;;;;;35.95;32.29;96271.81;2073886;28;20939;-65
2022/08/26 10:15:44;;;;;;;12.00;5.40;;;;;;;35.91;32.46;96273.38;2073749;28;20887;-63
2022/08/26 10:17:05;;;;;;;10.93;5.17;;;;;;;32.72;35.64;96267.94;2073178;28;21172;-63
2022/08/26 10:18:19;;;;;;;13.60;5.83;;;;;;;31.17;38.23;96270.28;2076108;28;20494;-63
2022/08/26 10:19:50;;;;;;;10.57;5.20;;;;;;;32.87;36.53;96270.38;2077819;28;20588;-63
2022/08/26 10:21:07;;;;;;;15.53;4.50;;;;;;;32.96;36.38;96269.03;2074489;28;20431;-63
2022/08/26 10:40:24;;;;;;;8.40;4.83;;;;;;;35.15;31.79;96270.50;2073695;28;20466;-63
2022/08/26 10:41:33;;;;;;;11.17;4.60;;;;;;;35.10;32.37;96263.06;2073116;28;20557;-63
2022/08/26 10:42:40;;;;;;;12.03;4.97;;;;;;;35.01;32.93;96269.91;2073992;28;20806;-63
2022/08/26 10:43:49;;;;;;;20.87;5.20;;;;;;;35.48;33.04;96269.97;2072749;28;20426;-63
2022/08/26 10:44:55;;;;;;;10.57;4.70;;;;;;;35.89;32.65;96266.53;2070937;28;20493;-63
2022/08/26 10:53:04;;;;;;;12.03;5.13;;;;;;;36.38;30.42;96269.72;2072292;28;20431;-63
2022/08/26 10:55:04;;;;;;;5.70;3.87;;;;;;;34.92;30.95;96271.28;2075936;28;20920;-63
2022/08/26 10:56:11;;;;;;;10.70;4.93;;;;;;;34.03;33.35;96275.38;2064448;28;20440;-62
2022/08/26 10:57:22;;;;;;;13.70;5.40;;;;;;;34.80;33.32;96271.22;2067407;28;20830;-63
2022/08/26 10:59:03;;;;;;;11.67;4.77;;;;;;;34.96;33.10;96265.16;2067945;28;20432;-63
2022/08/26 11:01:45;;;;;;;12.70;6.13;;;;;;;33.37;35.47;96261.47;2063582;28;20849;-63
2022/08/26 11:02:58;;;;;;;10.13;5.17;;;;;;;34.01;35.01;96251.22;2068503;28;21112;-62
2022/08/26 11:04:09;;;;;;;22.90;6.70;;;;;;;34.18;34.26;96247.88;2068353;28;20432;-63
2022/08/26 11:05:18;;;;;;;17.43;6.07;;;;;;;34.21;34.41;96244.72;2065275;28;20420;-63
2022/08/26 11:06:26;;;;;;;13.87;4.73;;;;;;;34.70;33.35;96216.75;2063796;28;20504;-63
2022/08/26 11:07:34;;;;;;;15.43;5.67;;;;;;;33.89;34.65;96242.22;2063823;28;20459;-63
2022/08/26 11:08:45;;;;;;;11.33;6.03;;;;;;;34.90;33.53;96241.69;2067037;28;20443;-63
2022/08/26 11:09:50;;;;;;;11.37;5.50;;;;;;;35.95;31.66;96243.84;2065428;28;20435;-63
2022/08/26 11:10:55;;;;;;;14.43;5.00;;;;;;;36.05;31.75;96229.63;2065237;28;21078;-63
2022/08/26 11:11:59;;;;;;;12.80;5.37;;;;;;;36.35;31.65;96236.75;2060578;28;21045;-63
2022/08/26 11:13:10;;;;;;;19.33;5.00;;;;;;;35.01;32.93;96236.50;2058013;28;20421;-63
2022/08/26 11:14:18;;;;;;;9.57;4.70;;;;;;;35.03;33.27;96235.22;2054892;28;20440;-63
2022/08/26 11:15:29;;;;;;;17.20;5.63;;;;;;;36.25;31.20;96235.50;2063251;28;20452;-63
2022/08/26 11:16:42;;;;;;;9.63;4.60;;;;;;;36.95;30.70;96240.84;2067742;28;20427;-63
2022/08/26 11:17:44;;;;;;;12.63;5.37;;;;;;;37.87;29.71;96237.88;2067909;28;20467;-63
2022/08/26 11:18:47;;;;;;;15.47;4.97;;;;;;;37.84;29.19;96243.81;2060373;28;20434;-63
2022/08/26 11:19:51;;;;;;;9.40;4.40;;;;;;;38.24;28.90;96250.84;2057556;28;20437;-63
2022/08/26 11:21:42;;;;;;;12.07;4.40;;;;;;;38.22;27.83;96239.38;2065278;28;21105;-64
2022/08/26 11:28:02;;;;;;;7.67;4.37;;;;;;;37.36;29.25;96238.78;2067863;28;20447;-64
2022/08/26 11:29:04;;;;;;;10.90;4.73;;;;;;;37.24;29.58;96235.31;2077145;28;20770;-66
2022/08/26 11:30:14;;;;;;;19.37;5.10;;;;;;;35.94;31.74;96236.75;2075271;28;20426;-64
2022/08/26 11:31:25;;;;;;;13.63;5.00;;;;;;;37.14;29.97;96236.00;2075719;28;20439;-64
2022/08/26 11:32:33;;;;;;;8.77;4.63;;;;;;;37.92;29.26;96240.66;2075835;28;20465;-64
2022/08/26 11:33:47;;;;;;;12.53;4.60;;;;;;;38.09;28.80;96237.88;2075522;28;20755;-63
2022/08/26 11:34:59;;;;;;;15.83;4.80;;;;;;;38.39;28.46;96228.44;2076515;28;20935;-64
2022/08/26 11:36:00;;;;;;;12.03;4.93;;;;;;;38.00;28.66;96225.78;2075996;28;20423;-63
2022/08/26 11:37:16;;;;;;;19.10;4.90;;;;;;;37.23;29.19;96217.31;2069982;28;20520;-64
2022/08/26 11:38:26;;;;;;;14.53;4.07;;;;;;;37.11;29.60;96222.88;2072329;28;20443;-64
2022/08/26 11:39:45;;;;;;;19.00;3.90;;;;;;;36.98;29.10;96220.50;2079186;28;20430;-64
2022/08/26 11:41:03;;;;;;;14.47;4.63;;;;;;;37.21;28.84;96222.22;2073316;28;20901;-63
2022/08/26 11:42:27;;;;;;;9.30;4.00;;;;;;;37.39;28.55;96219.22;2077863;28;20837;-63
2022/08/26 11:43:29;;;;;;;14.33;4.57;;;;;;;36.96;29.94;96209.03;2078496;28;20426;-63
2022/08/26 11:44:40;;;;;;;10.77;4.87;;;;;;;36.11;30.03;96221.38;2076534;28;20489;-63
2022/08/26 11:46:03;;;;;;;8.53;3.40;;;;;;;35.64;30.87;96213.28;2074366;28;20485;-64
2022/08/26 11:47:06;;;;;;;9.37;4.03;;;;;;;35.92;30.24;96215.28;2074901;28;20450;-63
2022/08/26 11:48:15;;;;;;;9.03;4.23;;;;;;;35.87;30.91;96217.06;2074831;28;20485;-63
2022/08/26 11:49:21;;;;;;;11.90;3.83;;;;;;;35.74;30.36;96218.94;2077418;28;20429;-63
2022/08/26 11:50:26;;;;;;;13.10;4.80;;;;;;;34.04;32.24;96211.19;2075737;28;20979;-63
2022/08/26 11:51:30;;;;;;;9.00;3.80;;;;;;;33.75;32.64;96209.03;2074148;28;20410;-62
2022/08/26 11:52:32;;;;;;;16.13;4.33;;;;;;;33.76;32.90;96193.59;2075379;28;20430;-62
2022/08/26 11:53:37;;;;;;;11.80;4.90;;;;;;;34.03;32.80;96199.56;2075926;28;20867;-62
2022/08/26 11:54:38;;;;;;;10.40;4.80;;;;;;;34.64;31.95;96207.66;2074543;28;20464;-62
2022/08/26 11:55:42;;;;;;;7.90;4.53;;;;;;;35.82;30.14;96206.06;2075798;28;21198;-61
2022/08/26 11:56:47;;;;;;;14.53;4.90;;;;;;;37.00;29.80;96212.91;2072085;28;20514;-62
2022/08/26 11:57:53;;;;;;;11.67;4.57;;;;;;;37.51;28.41;96212.84;2073420;28;20435;-62
2022/08/26 12:04:04;;;;;;;8.77;4.70;;;;;;;36.01;29.83;96223.88;2076992;28;20462;-61
2022/08/26 12:05:07;;;;;;;9.90;4.70;;;;;;;35.39;29.97;96210.84;2071332;28;20485;-60
2022/08/26 12:06:19;;;;;;;12.20;4.73;;;;;;;35.06;30.12;96226.63;2075680;28;20449;-60
2022/08/26 12:07:25;;;;;;;11.13;4.67;;;;;;;33.89;31.59;96219.72;2073929;28;20513;-60
2022/08/26 12:08:33;;;;;;;9.80;4.37;;;;;;;33.92;31.87;96221.97;2075301;28;20783;-60
2022/08/26 12:09:49;;;;;;;14.27;5.33;;;;;;;33.54;32.27;96223.81;2082775;28;20495;-60
2022/08/26 12:11:32;;;;;;;11.87;4.70;;;;;;;33.40;32.42;96223.13;2079694;28;20428;-61
2022/08/26 12:12:37;;;;;;;20.07;14.93;;;;;;;33.42;32.62;96212.09;2074917;28;20455;-61
2022/08/26 12:13:41;;;;;;;54.03;33.33;;;;;;;33.50;32.11;96228.03;2073431;28;20477;-62
2022/08/26 12:14:43;;;;;;;92.13;64.17;;;;;;;33.34;32.27;96224.88;2074631;28;20423;-62
2022/08/26 12:15:58;;;;;;;49.70;39.53;;;;;;;33.27;32.49;96223.22;2075786;28;20831;-61
2022/08/26 12:17:09;;;;;;;16.70;5.07;;;;;;;33.33;32.33;96220.50;2073556;28;20459;-61
2022/08/26 12:18:20;;;;;;;12.40;4.30;;;;;;;33.11;32.25;96217.34;2075975;28;20513;-64
2022/08/26 12:19:32;;;;;;;17.23;4.80;;;;;;;33.89;31.99;96222.41;2073612;28;20431;-62
2022/08/26 12:20:47;;;;;;;10.50;4.57;;;;;;;34.34;31.07;96214.75;2073793;28;20438;-61
2022/08/26 12:21:49;;;;;;;10.17;4.73;;;;;;;33.93;31.40;96220.91;2070931;28;20458;-63
2022/08/26 12:22:51;;;;;;;14.37;4.87;;;;;;;33.34;32.11;96208.66;2073859;28;20513;-62
2022/08/26 12:23:55;;;;;;;10.23;4.90;;;;;;;33.37;31.74;96213.59;2076141;28;20427;-62
2022/08/26 12:25:00;;;;;;;12.93;5.13;;;;;;;34.29;31.08;96214.59;2077506;28;20430;-63
2022/08/26 12:26:08;;;;;;;13.00;4.63;;;;;;;35.15;30.23;96210.84;2073118;28;20786;-63
2022/08/26 12:34:00;;;;;;;10.87;5.13;;;;;;;33.92;31.65;96209.25;2075789;28;20498;-63
2022/08/26 12:35:03;;;;;;;9.17;4.87;;;;;;;32.40;33.75;96212.06;2069742;28;20481;-63
2022/08/26 12:36:23;;;;;;;10.27;4.67;;;;;;;32.16;34.35;96207.38;2070244;28;20432;-63
2022/08/26 13:02:38;;;;;;;14.53;5.00;;;;;;;30.54;36.73;96173.69;2086980;28;21074;-61
2022/08/26 13:03:45;;;;;;;23.50;5.57;;;;;;;30.86;36.26;96180.09;2083817;28;20429;-62
2022/08/26 13:04:46;;;;;;;15.07;5.67;;;;;;;30.91;36.12;96174.09;2083649;28;20784;-62
2022/08/26 13:05:48;;;;;;;18.00;5.90;;;;;;;31.15;36.18;96178.03;2086052;28;20421;-62
2022/08/26 13:07:14;;;;;;;13.73;5.50;;;;;;;31.13;36.14;96177.41;2078076;28;20505;-62
2022/08/26 13:08:23;;;;;;;19.40;5.63;;;;;;;31.17;36.14;96181.31;2071617;28;20427;-62
2022/08/26 13:09:25;;;;;;;12.50;5.37;;;;;;;31.16;36.32;96184.22;2073483;28;21295;-62
2022/08/26 13:10:35;;;;;;;15.53;4.40;;;;;;;30.91;36.13;96174.09;2074718;28;20433;-61
2022/08/26 13:11:39;;;;;;;14.73;5.00;;;;;;;30.78;36.43;96169.53;2074510;28;20427;-62
2022/08/26 13:12:41;;;;;;;18.30;5.67;;;;;;;30.66;36.28;96161.22;2074209;28;21138;-62
2022/08/26 13:13:44;;;;;;;12.53;4.90;;;;;;;30.46;36.56;96175.50;2071677;28;20441;-60
2022/08/26 13:14:47;;;;;;;8.90;4.30;;;;;;;30.28;37.53;96165.34;2072412;28;20430;-60
2022/08/26 13:15:49;;;;;;;12.90;5.50;;;;;;;30.50;36.86;96165.19;2072689;28;20432;-60
2022/08/26 13:16:51;;;;;;;21.17;6.77;;;;;;;30.32;37.25;96148.75;2072710;28;20454;-60
2022/08/26 13:45:35;;;;;;;17.40;6.87;;;;;;;30.22;39.93;96138.38;2053520;28;1543781;-67
2022/08/26 13:46:41;;;;;;;15.87;5.50;;;;;;;30.23;39.65;96134.66;2115804;28;20645;-68
2022/08/26 13:47:43;;;;;;;20.47;5.70;;;;;;;30.12;40.53;96149.56;2117400;28;20421;-66
2022/08/26 13:48:45;;;;;;;15.93;5.00;;;;;;;29.85;40.96;96133.31;2118903;28;20433;-65
2022/08/26 13:49:46;;;;;;;12.73;5.27;;;;;;;29.98;40.69;96148.72;2109799;28;20423;-65
2022/08/26 13:50:48;;;;;;;13.53;6.37;;;;;;;30.03;40.42;96140.84;2107023;28;20427;-64
2022/08/26 13:57:03;;;;;;;13.43;5.03;;;;;;;29.11;42.67;96145.59;2114391;28;20390;-65
2022/08/26 13:58:04;;;;;;;26.40;5.87;;;;;;;29.61;41.82;96150.81;2099867;28;20545;-66
2022/08/26 13:59:06;;;;;;;16.53;5.93;;;;;;;29.90;42.04;96143.50;2101231;28;20427;-66
2022/08/26 14:00:09;;;;;;;18.70;5.60;;;;;;;29.90;42.22;96155.13;2100951;28;20519;-66
2022/08/26 14:25:36;;;;;;;30.40;8.18;;;;;;;29.57;43.48;96126.22;2093505;27;20566;-63
2022/08/26 14:26:41;;;;;;;19.15;7.03;;;;;;;29.55;43.30;96119.38;2090222;28;20200;-62
2022/08/26 14:33:04;;;;;;;16.77;5.80;;;;;;;29.56;43.16;96131.75;2069901;28;20221;-63
2022/08/26 14:34:06;;;;;;;19.30;6.57;;;;;;;29.53;42.99;96134.88;2070630;28;20431;-62
2022/08/26 14:35:16;;;;;;;17.87;5.70;;;;;;;29.62;43.28;96130.97;2070430;28;20945;-62
2022/08/26 14:56:42;;;;;;;8.49;4.64;;;;;;;27.49;43.57;96137.88;4210401;27;1290126;-60
2022/08/26 14:57:44;;;;;;;8.85;5.60;;;;;;;27.36;43.70;96135.81;2104000;28;20424;-60
2022/08/26 14:58:46;;;;;;;11.82;7.55;;;;;;;27.41;43.76;96118.38;2104038;28;20191;-61
2022/08/26 14:59:49;;;;;;;6.85;5.30;;;;;;;27.52;43.77;96133.97;2103342;28;20665;-60
2022/08/26 15:00:54;;;;;;;13.23;4.60;;;;;;;27.57;43.60;96146.84;2103827;28;20630;-58
2022/08/26 15:01:56;;;;;;;7.43;3.17;;;;;;;27.36;43.39;96134.97;2103162;28;20218;-59
2022/08/26 15:53:36;;;;;;;55.65;28.63;;;;;;;21.94;73.93;96214.97;2084776;28;20578;-60
2022/08/26 15:54:38;;;;;;;91.75;50.83;;;;;;;21.98;74.07;96212.84;2083463;28;20196;-61
2022/08/26 15:55:41;;;;;;;15.13;9.60;;;;;;;21.95;73.29;96216.66;2078229;28;20227;-61
